Time;durP1;ratioP1;P1;durP2;ratioP2;P2;SDS_P1;SDS_P2;PMS_P1;PMS_P2;Temp;Humidity;BMP_temperature;BMP_pressure;BME280_temperature;BME280_humidity;BME280_pressure;Samples;Min_cycle;Max_cycle;Signal;HPM_P1;HPM_P2
2023/08/25 00:02:19;;;;;;;11.23;7.80;;;19.20;99.90;;;;;;5058098;28;20727;-74
2023/08/25 00:04:44;;;;;;;13.10;8.50;;;19.20;99.90;;;;;;5057769;28;20445;-74
2023/08/25 00:07:10;;;;;;;12.93;8.43;;;19.20;99.90;;;;;;5057406;28;20464;-73
2023/08/25 00:09:36;;;;;;;12.63;8.52;;;19.20;99.90;;;;;;5056845;28;20381;-74
2023/08/25 00:12:03;;;;;;;10.00;7.68;;;19.30;99.90;;;;;;5056899;28;20385;-74
2023/08/25 00:14:28;;;;;;;17.17;8.82;;;19.10;99.90;;;;;;5058089;28;20393;-74
2023/08/25 00:16:54;;;;;;;13.90;8.80;;;19.10;99.90;;;;;;5057230;28;20889;-73
2023/08/25 00:19:20;;;;;;;14.73;8.77;;;19.10;99.90;;;;;;5057828;28;20400;-74
2023/08/25 00:21:45;;;;;;;13.80;8.63;;;19.10;99.90;;;;;;5057495;28;20389;-74
2023/08/25 00:24:11;;;;;;;15.13;9.43;;;19.10;99.90;;;;;;5058642;28;20385;-74
2023/08/25 00:26:39;;;;;;;15.90;9.23;;;19.00;99.90;;;;;;5059257;28;20392;-72
2023/08/25 00:29:06;;;;;;;18.20;9.30;;;19.00;99.90;;;;;;5058380;28;20385;-74
2023/08/25 00:31:32;;;;;;;14.38;10.15;;;19.00;99.90;;;;;;5057959;28;20491;-75
2023/08/25 00:34:02;;;;;;;19.80;10.57;;;19.00;99.90;;;;;;5057624;28;20447;-75
2023/08/25 00:36:28;;;;;;;14.63;11.65;;;19.00;99.90;;;;;;5058197;28;20381;-75
2023/08/25 00:38:54;;;;;;;20.85;11.40;;;19.10;99.90;;;;;;5058176;28;20397;-74
2023/08/25 00:41:19;;;;;;;17.60;11.27;;;19.00;99.90;;;;;;5057459;28;20892;-74
2023/08/25 00:43:45;;;;;;;14.83;10.47;;;19.00;99.90;;;;;;5061146;28;20408;-73
2023/08/25 00:46:11;;;;;;;16.98;9.93;;;19.10;99.90;;;;;;5067464;28;20385;-74
2023/08/25 00:48:38;;;;;;;17.02;10.00;;;19.00;99.90;;;;;;5067027;28;20417;-73
2023/08/25 00:51:05;;;;;;;12.13;9.05;;;19.00;99.90;;;;;;5049722;28;20396;-73
2023/08/25 00:53:32;;;;;;;16.17;10.00;;;19.10;99.90;;;;;;5067767;28;20378;-74
2023/08/25 00:55:58;;;;;;;17.35;10.23;;;19.10;99.90;;;;;;5067850;28;20766;-73
2023/08/25 00:58:24;;;;;;;14.35;9.50;;;19.00;99.90;;;;;;5067994;28;20389;-73
2023/08/25 01:00:51;;;;;;;16.55;9.70;;;19.00;99.90;;;;;;5065728;28;20389;-71
2023/08/25 01:03:16;;;;;;;17.63;9.87;;;18.90;99.90;;;;;;5049045;28;20471;-74
2023/08/25 01:05:42;;;;;;;16.10;9.10;;;19.00;99.90;;;;;;5066373;28;20411;-74
2023/08/25 01:08:08;;;;;;;15.25;9.15;;;19.00;99.90;;;;;;5072693;23;20812;-75
2023/08/25 01:10:48;;;;;;;14.80;9.05;;;19.00;99.90;;;;;;5053105;28;20381;-75
2023/08/25 01:13:42;;;;;;;15.05;8.90;;;19.00;99.90;;;;;;5052983;28;20366;-76
2023/08/25 01:16:12;;;;;;;11.53;8.63;;;19.00;99.90;;;;;;5053154;28;20384;-75
2023/08/25 01:18:40;;;;;;;12.93;8.30;;;19.00;99.90;;;;;;5052764;28;20469;-75
2023/08/25 01:21:07;;;;;;;12.40;8.45;;;19.00;99.90;;;;;;5052364;28;20404;-75
2023/08/25 01:23:37;;;;;;;13.05;8.60;;;19.00;99.90;;;;;;5052925;28;20882;-75
2023/08/25 01:26:04;;;;;;;12.93;8.75;;;19.00;99.90;;;;;;5052670;28;20388;-76
2023/08/25 01:28:29;;;;;;;15.90;8.70;;;18.90;99.90;;;;;;5052874;28;20405;-76
2023/08/25 01:30:58;;;;;;;13.32;9.00;;;19.00;99.90;;;;;;5052268;28;20800;-74
2023/08/25 01:33:26;;;;;;;14.52;9.20;;;19.00;99.90;;;;;;5052642;28;20459;-75
2023/08/25 01:36:06;;;;;;;18.90;8.93;;;19.00;99.90;;;;;;5051776;28;20385;-74
2023/08/25 01:38:46;;;;;;;15.45;9.38;;;18.90;99.90;;;;;;5051612;28;20381;-74
2023/08/25 01:41:31;;;;;;;17.83;9.50;;;18.90;99.90;;;;;;5051545;28;20750;-75
2023/08/25 01:43:59;;;;;;;16.17;9.82;;;18.90;99.90;;;;;;5051721;28;20389;-74
2023/08/25 01:46:26;;;;;;;17.52;9.57;;;18.90;99.90;;;;;;5051432;28;20397;-75
2023/08/25 01:48:56;;;;;;;17.25;9.90;;;18.90;99.90;;;;;;5051564;28;20393;-75
2023/08/25 01:51:22;;;;;;;14.00;9.50;;;18.90;99.90;;;;;;5051725;28;20919;-75
2023/08/25 01:53:52;;;;;;;20.00;10.50;;;18.90;99.90;;;;;;5051226;28;20480;-75
2023/08/25 01:56:18;;;;;;;16.63;10.20;;;18.70;99.90;;;;;;5051473;28;20522;-76
2023/08/25 01:58:43;;;;;;;16.30;9.57;;;18.70;99.90;;;;;;5050999;28;20421;-74
2023/08/25 02:01:09;;;;;;;15.50;9.63;;;18.70;99.90;;;;;;5050930;28;20389;-74
2023/08/25 02:03:34;;;;;;;13.20;9.20;;;18.70;99.90;;;;;;5050961;28;20464;-75
2023/08/25 02:06:00;;;;;;;13.83;9.90;;;18.70;99.90;;;;;;5050884;28;20754;-74
2023/08/25 02:08:25;;;;;;;16.83;9.40;;;18.70;99.90;;;;;;5050744;28;20501;-74
2023/08/25 02:10:52;;;;;;;19.20;10.47;;;18.70;99.90;;;;;;5032990;28;20458;-75
2023/08/25 02:13:18;;;;;;;14.93;9.90;;;18.70;99.90;;;;;;5051051;28;20388;-75
2023/08/25 02:15:45;;;;;;;13.27;9.57;;;18.60;99.90;;;;;;5050921;28;20465;-75
2023/08/25 02:18:11;;;;;;;14.52;9.70;;;18.60;99.90;;;;;;5050859;28;20464;-74
2023/08/25 02:20:38;;;;;;;12.60;9.40;;;18.60;99.90;;;;;;5050843;28;20576;-74
2023/08/25 02:23:04;;;;;;;15.88;9.70;;;18.60;99.90;;;;;;5050836;28;20886;-75
2023/08/25 02:25:32;;;;;;;18.20;10.10;;;18.60;99.90;;;;;;5050460;28;20501;-74
2023/08/25 02:27:57;;;;;;;15.07;10.60;;;18.60;99.90;;;;;;5051151;28;20501;-75
2023/08/25 02:30:23;;;;;;;18.48;10.43;;;18.60;99.90;;;;;;5051501;28;20377;-75
2023/08/25 02:32:49;;;;;;;15.17;10.50;;;18.50;99.90;;;;;;5052407;28;20451;-75
2023/08/25 02:35:15;;;;;;;16.92;9.85;;;18.50;99.90;;;;;;5051272;28;20389;-75
2023/08/25 02:38:06;;;;;;;14.90;10.60;;;18.50;99.90;;;;;;5036026;28;20816;-74
2023/08/25 02:40:32;;;;;;;16.80;10.63;;;18.50;99.90;;;;;;5057811;28;20381;-74
2023/08/25 02:43:00;;;;;;;18.33;10.32;;;18.50;99.90;;;;;;5056240;28;20381;-75
2023/08/25 02:45:26;;;;;;;16.70;10.43;;;18.40;99.90;;;;;;5040412;28;20488;-74
2023/08/25 02:47:53;;;;;;;20.35;9.80;;;18.40;99.90;;;;;;5039655;28;20405;-75
2023/08/25 02:50:19;;;;;;;16.05;10.07;;;18.40;99.90;;;;;;5038622;28;20373;-75
2023/08/25 02:52:45;;;;;;;18.70;9.98;;;18.30;99.90;;;;;;5051119;28;20392;-75
2023/08/25 02:55:14;;;;;;;17.07;9.43;;;18.30;99.90;;;;;;5051423;28;20385;-75
2023/08/25 02:57:40;;;;;;;18.98;10.52;;;18.40;99.90;;;;;;5033123;28;20735;-75
2023/08/25 03:00:08;;;;;;;17.50;9.77;;;18.40;99.90;;;;;;5051223;28;20392;-75
2023/08/25 03:02:34;;;;;;;15.10;9.40;;;18.40;99.90;;;;;;5049699;28;20469;-74
2023/08/25 03:04:59;;;;;;;13.43;8.88;;;18.40;99.90;;;;;;5047566;28;20503;-75
2023/08/25 03:07:25;;;;;;;14.80;9.20;;;18.30;99.90;;;;;;5050730;28;20416;-74
2023/08/25 03:09:51;;;;;;;13.07;8.90;;;18.30;99.90;;;;;;5047630;28;20420;-74
2023/08/25 03:12:16;;;;;;;15.50;8.80;;;18.30;99.90;;;;;;5050419;28;20394;-72
2023/08/25 03:14:42;;;;;;;13.90;9.57;;;18.30;99.90;;;;;;5047490;28;20443;-73
2023/08/25 03:17:08;;;;;;;15.13;8.95;;;18.30;99.90;;;;;;5054221;28;20448;-73
2023/08/25 03:19:34;;;;;;;14.48;8.90;;;18.30;99.90;;;;;;5032937;28;20407;-73
2023/08/25 03:21:59;;;;;;;17.02;10.00;;;18.30;99.90;;;;;;5037770;28;20762;-73
2023/08/25 03:24:25;;;;;;;32.47;14.50;;;18.20;99.90;;;;;;5042017;28;20383;-73
2023/08/25 03:26:50;;;;;;;18.53;9.17;;;18.20;99.90;;;;;;5041694;28;20407;-72
2023/08/25 03:29:16;;;;;;;15.32;8.57;;;18.20;99.90;;;;;;5037417;28;20408;-73
2023/08/25 03:31:41;;;;;;;12.97;8.00;;;18.20;99.90;;;;;;5066135;28;20385;-73
2023/08/25 03:34:07;;;;;;;11.40;8.27;;;18.20;99.90;;;;;;5065800;28;20393;-73
2023/08/25 03:36:33;;;;;;;13.07;7.75;;;18.20;99.90;;;;;;5067449;28;20406;-73
2023/08/25 03:38:59;;;;;;;13.82;7.90;;;18.20;99.90;;;;;;5049667;28;20385;-73
2023/08/25 03:41:24;;;;;;;8.57;7.22;;;18.20;99.90;;;;;;5064147;28;20392;-73
2023/08/25 03:43:50;;;;;;;14.97;7.77;;;18.20;99.90;;;;;;5053301;28;20390;-73
2023/08/25 03:46:15;;;;;;;12.80;7.47;;;18.10;99.90;;;;;;5050759;28;20396;-74
2023/08/25 03:48:41;;;;;;;11.98;7.65;;;18.10;99.90;;;;;;5051376;28;20405;-74
2023/08/25 03:51:07;;;;;;;15.90;7.80;;;18.20;99.90;;;;;;5054338;28;20505;-74
2023/08/25 03:53:34;;;;;;;13.00;7.13;;;18.10;99.90;;;;;;5056486;28;20377;-74
2023/08/25 03:55:59;;;;;;;12.95;7.60;;;18.20;99.90;;;;;;5058689;28;20464;-73
2023/08/25 03:58:25;;;;;;;11.70;7.30;;;18.20;99.90;;;;;;5065250;28;20379;-73
2023/08/25 04:01:00;;;;;;;11.50;7.10;;;18.20;99.90;;;;;;5062320;28;20442;-73
2023/08/25 04:03:26;;;;;;;9.18;6.80;;;18.30;99.90;;;;;;5059900;28;20506;-73
2023/08/25 04:05:51;;;;;;;11.07;6.68;;;18.40;99.90;;;;;;5057813;28;20400;-73
2023/08/25 04:08:17;;;;;;;8.23;6.57;;;18.30;99.90;;;;;;5054891;28;20608;-73
2023/08/25 04:10:43;;;;;;;9.30;7.20;;;18.20;99.90;;;;;;5049959;28;20804;-74
2023/08/25 04:13:09;;;;;;;10.55;6.90;;;18.00;99.90;;;;;;5050236;28;20381;-74
2023/08/25 04:15:36;;;;;;;9.07;6.20;;;18.00;99.90;;;;;;5050137;28;20557;-74
2023/08/25 04:18:02;;;;;;;11.63;7.10;;;18.10;99.90;;;;;;5049790;28;20408;-74
2023/08/25 04:20:27;;;;;;;7.83;6.33;;;18.30;99.90;;;;;;5050104;28;20382;-73
2023/08/25 04:22:53;;;;;;;12.20;6.80;;;18.30;99.90;;;;;;5032702;28;20389;-74
2023/08/25 04:25:18;;;;;;;11.82;7.00;;;18.30;99.90;;;;;;5051323;28;20874;-73
2023/08/25 04:27:44;;;;;;;8.83;6.57;;;18.20;99.90;;;;;;5051077;28;20420;-74
2023/08/25 04:30:10;;;;;;;11.88;7.25;;;18.20;99.90;;;;;;5051854;28;20388;-74
2023/08/25 04:32:36;;;;;;;9.93;6.93;;;18.20;99.90;;;;;;5051134;28;20385;-73
2023/08/25 04:35:01;;;;;;;12.73;7.55;;;18.10;99.90;;;;;;5051614;28;20381;-74
2023/08/25 04:37:27;;;;;;;11.87;7.20;;;18.10;99.90;;;;;;5054813;28;20483;-74
2023/08/25 04:39:55;;;;;;;11.20;7.57;;;18.10;99.90;;;;;;5052838;28;20382;-73
2023/08/25 04:42:21;;;;;;;10.70;7.10;;;18.10;99.90;;;;;;5052974;28;20382;-74
2023/08/25 04:44:47;;;;;;;12.52;7.07;;;18.20;99.90;;;;;;5053259;28;20414;-74
2023/08/25 04:47:12;;;;;;;12.20;7.70;;;18.40;99.90;;;;;;5052988;28;20488;-74
2023/08/25 04:49:38;;;;;;;12.83;6.70;;;18.50;99.90;;;;;;5053964;28;20413;-74
2023/08/25 04:52:04;;;;;;;15.02;7.40;;;18.50;99.90;;;;;;5053853;28;20378;-74
2023/08/25 04:54:29;;;;;;;13.95;7.03;;;18.50;99.90;;;;;;5053570;28;20447;-75
2023/08/25 04:56:55;;;;;;;9.67;6.50;;;18.60;99.90;;;;;;5052785;28;20441;-74
2023/08/25 04:59:20;;;;;;;11.18;7.25;;;18.70;99.90;;;;;;5052919;28;20877;-74
2023/08/25 05:01:46;;;;;;;9.65;6.53;;;18.60;99.90;;;;;;5052923;28;20391;-75
2023/08/25 05:04:12;;;;;;;11.23;6.17;;;18.60;99.90;;;;;;5053380;28;20401;-76
2023/08/25 05:06:37;;;;;;;8.27;5.72;;;18.70;99.90;;;;;;5052679;28;20534;-73
2023/08/25 05:09:03;;;;;;;13.20;6.82;;;18.80;99.90;;;;;;5052517;28;20404;-75
2023/08/25 05:11:29;;;;;;;11.17;6.63;;;18.70;99.90;;;;;;5053707;28;20500;-74
2023/08/25 05:13:54;;;;;;;11.77;6.60;;;18.60;99.90;;;;;;5053602;28;20386;-75
2023/08/25 05:16:20;;;;;;;10.10;6.30;;;18.70;99.90;;;;;;5052846;28;20381;-75
2023/08/25 05:18:46;;;;;;;14.05;7.40;;;18.60;99.90;;;;;;5052284;28;20386;-73
2023/08/25 05:21:13;;;;;;;13.25;6.93;;;18.50;99.90;;;;;;5052009;28;20385;-73
2023/08/25 05:23:46;;;;;;;16.80;6.90;;;18.60;99.90;;;;;;5034500;28;20389;-73
2023/08/25 05:26:13;;;;;;;9.70;7.00;;;18.70;99.90;;;;;;5051912;28;20393;-73
2023/08/25 05:28:38;;;;;;;11.45;7.40;;;18.60;99.90;;;;;;5051978;28;20488;-74
2023/08/25 05:31:04;;;;;;;13.80;7.20;;;18.60;99.90;;;;;;5051760;28;20421;-73
2023/08/25 05:33:29;;;;;;;12.40;6.63;;;18.70;99.90;;;;;;5052116;28;20382;-73
2023/08/25 05:35:55;;;;;;;10.32;6.85;;;18.70;99.90;;;;;;5051987;28;20396;-74
2023/08/25 05:38:20;;;;;;;13.77;6.70;;;18.80;99.90;;;;;;5052048;28;20389;-73
2023/08/25 05:40:46;;;;;;;10.35;7.15;;;18.90;99.90;;;;;;5052370;28;20382;-74
2023/08/25 05:43:11;;;;;;;16.00;6.40;;;19.00;99.90;;;;;;5051609;28;20722;-74
2023/08/25 05:45:37;;;;;;;11.03;6.70;;;19.00;99.90;;;;;;5051392;28;20389;-74
2023/08/25 05:48:03;;;;;;;15.20;7.20;;;19.10;98.20;;;;;;5051687;28;20765;-74
2023/08/25 05:50:28;;;;;;;11.13;7.40;;;19.10;98.60;;;;;;5051934;28;20414;-74
2023/08/25 05:52:54;;;;;;;11.30;7.23;;;19.10;98.10;;;;;;5051640;28;20858;-75
2023/08/25 05:55:19;;;;;;;12.32;6.97;;;19.20;96.90;;;;;;5051895;28;20377;-75
2023/08/25 05:57:45;;;;;;;13.07;6.37;;;19.20;95.00;;;;;;5051596;28;20563;-73
2023/08/25 06:00:11;;;;;;;11.93;7.00;;;19.30;94.10;;;;;;5051443;28;20743;-75
2023/08/25 06:02:37;;;;;;;12.13;6.82;;;19.30;92.40;;;;;;5051170;28;20389;-74
2023/08/25 06:05:03;;;;;;;9.13;6.85;;;19.40;92.90;;;;;;5051313;28;20404;-74
2023/08/25 06:07:28;;;;;;;14.45;7.80;;;19.40;91.10;;;;;;5033267;28;20413;-74
2023/08/25 06:09:54;;;;;;;11.40;7.10;;;19.60;88.40;;;;;;5051326;28;20411;-74
2023/08/25 06:12:20;;;;;;;11.13;6.70;;;19.70;87.50;;;;;;5051062;28;20389;-74
2023/08/25 06:14:46;;;;;;;10.60;6.90;;;19.80;87.90;;;;;;5050888;28;20384;-73
2023/08/25 06:17:11;;;;;;;11.73;7.13;;;19.90;85.60;;;;;;5050944;28;20381;-75
2023/08/25 06:19:37;;;;;;;12.07;6.50;;;20.00;84.00;;;;;;5051530;28;20381;-74
2023/08/25 06:22:03;;;;;;;11.15;6.50;;;20.00;83.40;;;;;;5050781;28;20389;-75
2023/08/25 06:24:29;;;;;;;10.23;6.78;;;20.10;81.40;;;;;;5051192;28;20382;-75
2023/08/25 06:26:54;;;;;;;18.08;6.80;;;20.20;81.70;;;;;;5050672;28;20397;-75
2023/08/25 06:29:20;;;;;;;12.13;6.60;;;20.30;79.20;;;;;;5052109;28;20791;-75
2023/08/25 06:31:46;;;;;;;10.03;7.10;;;20.50;78.20;;;;;;5052476;28;20381;-75
2023/08/25 06:34:12;;;;;;;8.82;7.07;;;20.60;75.00;;;;;;5052342;28;20893;-74
2023/08/25 06:36:37;;;;;;;10.45;6.68;;;20.80;72.60;;;;;;5051179;28;20394;-75
2023/08/25 06:39:03;;;;;;;11.20;6.90;;;21.00;69.60;;;;;;5051028;28;20385;-75
2023/08/25 06:41:29;;;;;;;10.77;6.40;;;21.20;68.40;;;;;;5050780;28;20553;-74
2023/08/25 06:43:57;;;;;;;10.90;7.03;;;21.40;65.50;;;;;;5050505;28;20865;-73
2023/08/25 06:46:23;;;;;;;12.38;7.63;;;21.40;65.20;;;;;;5050676;28;20479;-75
2023/08/25 06:48:50;;;;;;;37.58;28.63;;;21.20;65.60;;;;;;5049987;28;20463;-74
2023/08/25 06:51:15;;;;;;;18.30;11.65;;;21.30;67.10;;;;;;5050447;28;20416;-76
2023/08/25 06:53:41;;;;;;;16.50;9.52;;;21.10;72.00;;;;;;5050887;28;20908;-75
2023/08/25 06:56:07;;;;;;;21.23;13.57;;;21.00;73.90;;;;;;5050674;28;20409;-74
2023/08/25 06:58:33;;;;;;;12.77;8.48;;;20.90;78.50;;;;;;5051590;28;20397;-74
2023/08/25 07:00:58;;;;;;;16.35;8.82;;;21.00;77.50;;;;;;5050446;28;20381;-76
2023/08/25 07:03:24;;;;;;;13.90;8.93;;;20.90;78.30;;;;;;5051040;28;20431;-74
2023/08/25 07:05:55;;;;;;;15.85;9.80;;;20.80;80.60;;;;;;5051245;28;20385;-73
2023/08/25 07:08:21;;;;;;;17.35;8.80;;;20.70;84.80;;;;;;5061407;23;20766;-73
2023/08/25 07:10:46;;;;;;;12.77;8.98;;;20.70;85.40;;;;;;5050632;28;20439;-75
2023/08/25 07:13:12;;;;;;;15.97;8.60;;;20.80;83.80;;;;;;5050759;28;20381;-74
2023/08/25 07:15:37;;;;;;;16.50;9.45;;;20.80;86.10;;;;;;5050502;28;20462;-73
2023/08/25 07:18:03;;;;;;;14.53;9.30;;;20.90;83.10;;;;;;5050213;28;20424;-72
2023/08/25 07:20:29;;;;;;;12.07;9.45;;;20.80;82.60;;;;;;5050357;28;20388;-74
2023/08/25 07:22:55;;;;;;;13.40;8.85;;;20.70;83.40;;;;;;5049038;28;20743;-73
2023/08/25 07:25:20;;;;;;;12.00;8.53;;;20.70;83.10;;;;;;5050521;28;20381;-73
2023/08/25 07:27:46;;;;;;;15.32;9.88;;;20.70;82.80;;;;;;5050038;28;20889;-74
2023/08/25 07:30:12;;;;;;;20.33;10.67;;;20.60;83.20;;;;;;5050208;28;20413;-74
2023/08/25 07:32:38;;;;;;;21.93;13.47;;;20.50;86.50;;;;;;5050365;28;20870;-74
2023/08/25 07:35:04;;;;;;;25.48;13.35;;;20.30;95.00;;;;;;5050236;28;20422;-73
2023/08/25 07:37:29;;;;;;;24.73;13.97;;;20.20;99.90;;;;;;5050746;28;20472;-73
2023/08/25 07:39:55;;;;;;;25.73;14.83;;;20.00;99.90;;;;;;5050299;28;20385;-74
2023/08/25 07:42:22;;;;;;;23.38;13.50;;;20.10;99.90;;;;;;5050078;28;20784;-73
2023/08/25 07:44:49;;;;;;;20.17;12.80;;;20.20;99.90;;;;;;5048963;28;20385;-74
2023/08/25 07:47:14;;;;;;;22.70;13.30;;;20.10;99.90;;;;;;5050204;28;20423;-74
2023/08/25 07:49:40;;;;;;;26.43;14.87;;;20.00;99.90;;;;;;5050504;28;20393;-74
2023/08/25 07:52:06;;;;;;;22.48;15.23;;;19.90;99.90;;;;;;5049939;28;20869;-73
2023/08/25 07:54:31;;;;;;;26.02;16.20;;;19.80;99.90;;;;;;5050423;28;20389;-76
2023/08/25 07:56:58;;;;;;;22.90;16.20;;;19.70;99.90;;;;;;5050570;28;20776;-74
2023/08/25 07:59:24;;;;;;;22.35;15.10;;;19.80;99.90;;;;;;5051149;28;20396;-75
2023/08/25 08:01:52;;;;;;;22.13;14.73;;;20.10;99.90;;;;;;5052759;28;20738;-73
2023/08/25 08:04:18;;;;;;;27.88;16.63;;;20.10;99.90;;;;;;5050654;28;20382;-72
2023/08/25 08:06:44;;;;;;;26.58;16.90;;;19.80;99.90;;;;;;5051351;28;20771;-74
2023/08/25 08:09:10;;;;;;;28.27;17.43;;;19.60;99.90;;;;;;5051537;28;20510;-74
2023/08/25 08:11:36;;;;;;;31.95;18.80;;;19.60;99.90;;;;;;5054284;28;20463;-75
2023/08/25 08:14:02;;;;;;;30.42;18.27;;;19.50;99.90;;;;;;5054667;28;20449;-74
2023/08/25 08:16:28;;;;;;;28.90;17.40;;;19.60;99.90;;;;;;5055639;28;20814;-74
2023/08/25 08:18:54;;;;;;;28.02;17.73;;;19.50;99.90;;;;;;5054222;28;20468;-75
2023/08/25 08:21:19;;;;;;;29.33;17.97;;;19.40;99.90;;;;;;5053904;28;20416;-74
2023/08/25 08:23:45;;;;;;;29.83;17.63;;;19.40;99.90;;;;;;5053368;28;20381;-74
2023/08/25 08:26:11;;;;;;;26.90;16.57;;;19.40;99.90;;;;;;5054151;28;20385;-73
2023/08/25 08:28:36;;;;;;;30.43;17.77;;;19.50;99.90;;;;;;5054291;28;20493;-74
2023/08/25 08:31:05;;;;;;;23.00;17.10;;;19.50;99.90;;;;;;5053510;28;20393;-74
2023/08/25 08:33:33;;;;;;;27.75;18.55;;;19.50;99.90;;;;;;5053983;28;20389;-74
2023/08/25 08:36:00;;;;;;;32.55;18.77;;;19.50;99.90;;;;;;5053287;28;20459;-73
2023/08/25 08:38:26;;;;;;;25.55;15.63;;;19.50;99.90;;;;;;5053178;28;20436;-74
2023/08/25 08:40:52;;;;;;;25.63;15.63;;;19.50;99.90;;;;;;5053011;28;20381;-74
2023/08/25 08:43:18;;;;;;;27.23;16.00;;;19.50;99.90;;;;;;5053473;28;20477;-74
2023/08/25 08:45:45;;;;;;;22.05;13.63;;;19.60;99.90;;;;;;5053046;28;20880;-74
2023/08/25 08:48:12;;;;;;;14.48;9.80;;;19.60;99.90;;;;;;5052958;28;20458;-73
2023/08/25 08:50:41;;;;;;;14.52;9.35;;;19.70;99.90;;;;;;5053076;28;20738;-74
2023/08/25 08:53:08;;;;;;;17.73;10.10;;;19.70;99.90;;;;;;5052931;28;20385;-74
2023/08/25 08:55:35;;;;;;;17.23;10.70;;;19.80;99.90;;;;;;5052823;28;20881;-74
2023/08/25 08:58:00;;;;;;;20.38;11.18;;;19.90;99.90;;;;;;5052794;28;20789;-74
2023/08/25 09:00:27;;;;;;;18.73;10.87;;;20.00;99.90;;;;;;5052873;28;20373;-74
2023/08/25 09:02:54;;;;;;;13.57;10.10;;;20.30;99.90;;;;;;5052664;28;20388;-76
2023/08/25 09:05:23;;;;;;;14.85;9.80;;;20.60;99.90;;;;;;5052950;28;20394;-74
2023/08/25 09:07:56;;;;;;;16.67;9.68;;;20.70;99.90;;;;;;5052467;28;20674;-73
2023/08/25 09:10:27;;;;;;;14.80;9.90;;;20.70;99.90;;;;;;5052693;28;20389;-75
2023/08/25 09:12:52;;;;;;;13.57;10.35;;;20.80;99.30;;;;;;5052162;28;20382;-75
2023/08/25 09:15:28;;;;;;;14.02;9.77;;;20.80;99.40;;;;;;5052610;28;20780;-73
2023/08/25 09:18:08;;;;;;;14.30;8.70;;;20.80;96.60;;;;;;5052301;28;20456;-73
2023/08/25 09:20:38;;;;;;;13.38;7.95;;;20.80;95.50;;;;;;5052301;28;20390;-73
2023/08/25 09:23:05;;;;;;;14.05;7.93;;;21.00;90.90;;;;;;5052269;28;20385;-73
2023/08/25 09:25:34;;;;;;;19.50;8.10;;;21.20;86.10;;;;;;5052634;28;20446;-74
2023/08/25 09:28:03;;;;;;;12.65;8.15;;;21.00;92.80;;;;;;5052995;28;20473;-76
2023/08/25 09:30:37;;;;;;;18.80;8.52;;;21.40;86.70;;;;;;5053743;28;20384;-74
2023/08/25 09:33:04;;;;;;;11.60;7.70;;;21.60;83.70;;;;;;5054731;28;20975;-74
2023/08/25 09:35:31;;;;;;;10.40;6.90;;;21.70;87.40;;;;;;5053012;28;20408;-75
2023/08/25 09:37:57;;;;;;;16.52;7.78;;;21.80;83.50;;;;;;5052403;28;20792;-73
2023/08/25 09:40:22;;;;;;;9.70;6.63;;;22.00;79.90;;;;;;5052563;28;20435;-75
2023/08/25 09:42:48;;;;;;;8.50;6.60;;;22.00;76.70;;;;;;5051871;28;20377;-74
2023/08/25 09:45:14;;;;;;;9.40;6.30;;;22.00;82.40;;;;;;5052601;28;20389;-73
2023/08/25 09:47:41;;;;;;;9.77;6.30;;;21.90;78.70;;;;;;5052322;28;20409;-75
2023/08/25 09:50:07;;;;;;;19.77;9.10;;;21.60;79.10;;;;;;5052393;28;20905;-73
2023/08/25 09:52:36;;;;;;;15.90;7.90;;;21.30;84.40;;;;;;5052126;28;20398;-74
2023/08/25 09:55:03;;;;;;;13.90;7.20;;;21.20;87.50;;;;;;5052292;28;20393;-73
2023/08/25 09:57:30;;;;;;;14.73;6.97;;;21.40;84.00;;;;;;5052113;28;20383;-74
2023/08/25 09:59:56;;;;;;;13.02;7.00;;;21.00;90.70;;;;;;5052351;28;20403;-73
2023/08/25 10:02:22;;;;;;;12.35;7.70;;;20.80;95.00;;;;;;5052105;28;20382;-74
2023/08/25 10:04:48;;;;;;;11.50;6.93;;;20.80;95.40;;;;;;5052070;28;20388;-73
2023/08/25 10:07:14;;;;;;;10.70;6.10;;;20.80;93.10;;;;;;5050621;28;20401;-73
2023/08/25 10:09:39;;;;;;;9.07;5.50;;;20.70;88.20;;;;;;5051542;28;20404;-73
2023/08/25 10:12:08;;;;;;;10.30;5.83;;;20.70;84.80;;;;;;5051275;28;20381;-74
2023/08/25 10:14:36;;;;;;;12.77;6.72;;;20.60;85.10;;;;;;5052335;28;20485;-73
2023/08/25 10:17:03;;;;;;;10.52;7.30;;;20.30;94.70;;;;;;5053164;28;20385;-72
2023/08/25 10:19:31;;;;;;;15.60;7.80;;;20.10;99.90;;;;;;5052900;28;20444;-73
2023/08/25 10:21:58;;;;;;;15.03;8.40;;;19.90;99.90;;;;;;5054102;28;20460;-75
2023/08/25 10:24:25;;;;;;;13.48;7.93;;;19.80;99.90;;;;;;5052423;28;20389;-75
2023/08/25 10:26:52;;;;;;;15.10;8.82;;;19.80;99.90;;;;;;5051777;28;20390;-76
2023/08/25 10:29:21;;;;;;;16.20;8.40;;;19.70;99.90;;;;;;5052136;28;20381;-75
2023/08/25 10:31:57;;;;;;;14.70;7.75;;;19.80;99.90;;;;;;5051847;28;20381;-75
2023/08/25 10:34:37;;;;;;;13.63;8.38;;;19.70;99.90;;;;;;5052010;28;20788;-75
2023/08/25 10:37:10;;;;;;;17.73;8.52;;;19.80;99.90;;;;;;5051589;28;20370;-74
2023/08/25 10:39:56;;;;;;;16.55;7.80;;;19.90;99.90;;;;;;5051317;28;20899;-75
2023/08/25 10:42:31;;;;;;;14.68;9.20;;;19.90;99.90;;;;;;5051294;28;20385;-75
2023/08/25 10:45:07;;;;;;;15.23;9.20;;;19.80;99.90;;;;;;5052184;28;20382;-75
2023/08/25 10:47:39;;;;;;;17.13;9.23;;;19.70;99.90;;;;;;5052619;28;20431;-73
2023/08/25 10:50:05;;;;;;;20.55;8.30;;;19.70;99.90;;;;;;5051140;28;21748;-74
2023/08/25 10:52:32;;;;;;;16.38;7.50;;;19.70;99.90;;;;;;5051923;28;20381;-73
2023/08/25 10:55:32;;;;;;;15.75;7.57;;;19.60;99.90;;;;;;5052008;28;20390;-75
2023/08/25 10:58:05;;;;;;;11.25;7.40;;;19.60;99.90;;;;;;5053316;28;20691;-73
2023/08/25 11:00:36;;;;;;;15.15;8.23;;;19.60;99.90;;;;;;5051929;28;20869;-74
2023/08/25 11:03:03;;;;;;;11.57;7.80;;;19.50;99.90;;;;;;5050001;28;20417;-76
2023/08/25 11:05:28;;;;;;;9.57;7.05;;;19.50;99.90;;;;;;5051035;28;20393;-74
2023/08/25 11:07:55;;;;;;;11.25;6.85;;;19.70;99.90;;;;;;5050969;28;20409;-75
2023/08/25 11:10:24;;;;;;;13.52;7.63;;;19.90;99.90;;;;;;5051745;28;20381;-74
2023/08/25 11:12:54;;;;;;;9.70;7.05;;;20.30;99.90;;;;;;5050419;28;20460;-73
2023/08/25 11:15:23;;;;;;;10.27;7.07;;;20.80;99.90;;;;;;5050659;28;20385;-73
2023/08/25 11:17:49;;;;;;;8.17;6.67;;;21.00;90.80;;;;;;5050543;28;20852;-74
2023/08/25 11:20:17;;;;;;;9.20;5.80;;;21.10;86.40;;;;;;5050432;28;20378;-74
2023/08/25 11:22:51;;;;;;;8.45;6.07;;;21.10;83.20;;;;;;5050365;28;20481;-73
2023/08/25 11:25:17;;;;;;;11.90;5.73;;;21.00;83.60;;;;;;5050637;28;20385;-74
2023/08/25 11:27:42;;;;;;;8.07;5.10;;;21.10;84.10;;;;;;5052192;28;20566;-76
2023/08/25 11:30:09;;;;;;;10.27;5.70;;;21.10;82.50;;;;;;5052317;28;20389;-74
2023/08/25 11:32:35;;;;;;;11.05;5.18;;;21.30;84.00;;;;;;5050244;28;20896;-72
2023/08/25 11:35:04;;;;;;;8.65;4.50;;;21.30;82.40;;;;;;5050118;28;20807;-74
2023/08/25 11:37:30;;;;;;;7.88;5.13;;;21.30;80.60;;;;;;5050883;28;20735;-75
2023/08/25 11:39:55;;;;;;;7.90;4.70;;;21.10;83.50;;;;;;5050457;28;20485;-74
2023/08/25 11:42:21;;;;;;;8.80;5.00;;;21.00;83.80;;;;;;5050191;28;20432;-74
2023/08/25 11:44:47;;;;;;;10.07;4.90;;;21.00;86.90;;;;;;5052029;28;20396;-75
2023/08/25 11:47:13;;;;;;;6.85;4.90;;;21.00;87.30;;;;;;5054242;28;20477;-76
2023/08/25 11:49:41;;;;;;;9.47;5.33;;;21.10;86.80;;;;;;5052981;28;20389;-74
2023/08/25 11:52:07;;;;;;;11.77;5.55;;;21.40;85.10;;;;;;5054300;28;20381;-75
2023/08/25 11:54:46;;;;;;;8.20;4.70;;;21.60;82.40;;;;;;5054781;28;20518;-75
2023/08/25 11:57:12;;;;;;;8.98;4.97;;;21.90;76.80;;;;;;5054382;28;20951;-74
2023/08/25 11:59:42;;;;;;;6.18;4.70;;;22.10;76.30;;;;;;5054379;28;20798;-74
2023/08/25 12:02:07;;;;;;;7.78;5.07;;;22.50;69.90;;;;;;5052705;28;20389;-75
2023/08/25 12:04:33;;;;;;;10.15;4.90;;;22.90;66.80;;;;;;5054029;28;20435;-75
2023/08/25 12:07:01;;;;;;;7.87;4.50;;;23.20;66.30;;;;;;5054416;28;20380;-75
2023/08/25 12:09:27;;;;;;;8.37;4.77;;;23.30;61.90;;;;;;5052705;28;20921;-75
2023/08/25 12:11:56;;;;;;;6.22;4.75;;;23.40;60.60;;;;;;5054669;28;20381;-75
2023/08/25 12:14:25;;;;;;;6.15;4.80;;;23.40;61.70;;;;;;5054354;28;20460;-75
2023/08/25 12:16:50;;;;;;;8.80;5.70;;;23.30;62.50;;;;;;5054469;28;20392;-75
2023/08/25 12:19:16;;;;;;;6.27;4.63;;;23.20;64.40;;;;;;5054253;28;20477;-74
2023/08/25 12:21:41;;;;;;;9.43;5.20;;;23.50;63.00;;;;;;5053953;28;20386;-75
2023/08/25 12:24:07;;;;;;;7.83;5.43;;;23.70;59.40;;;;;;5053611;28;20850;-74
2023/08/25 12:26:32;;;;;;;12.33;5.90;;;23.90;58.40;;;;;;5053528;28;20823;-73
2023/08/25 12:28:58;;;;;;;9.13;5.20;;;24.00;60.00;;;;;;5053594;28;20413;-74
2023/08/25 12:31:23;;;;;;;5.63;4.70;;;24.00;57.80;;;;;;5053390;28;20472;-75
2023/08/25 12:33:49;;;;;;;7.53;5.35;;;23.90;59.30;;;;;;5053278;28;20527;-74
2023/08/25 12:36:14;;;;;;;5.97;5.10;;;23.70;60.20;;;;;;5053056;28;20390;-73